Time;durP1;ratioP1;P1;durP2;ratioP2;P2;SDS_P1;SDS_P2;PMS_P1;PMS_P2;Temp;Humidity;BMP_temperature;BMP_pressure;BME280_temperature;BME280_humidity;BME280_pressure;Samples;Min_cycle;Max_cycle;Signal;HPM_P1;HPM_P2
2021/03/03 00:00:19;;;;;;;;;;;;;;;;;;4955568;28;19926;-67
2021/03/03 00:02:46;;;;;;;;;;;;;;;;;;4955760;28;19933;-66
2021/03/03 00:05:12;;;;;;;;;;;;;;;;;;4956302;28;19945;-66
2021/03/03 00:07:39;;;;;;;;;;;;;;;;;;4956462;28;20307;-67
2021/03/03 00:10:05;;;;;;;;;;;;;;;;;;4956836;28;20018;-67
2021/03/03 00:12:32;;;;;;;;;;;;;;;;;;4957677;28;20307;-67
2021/03/03 00:14:58;;;;;;;;;;;;;;;;;;4954757;28;19990;-68
2021/03/03 00:17:25;;;;;;;;;;;;;;;;;;4952294;28;20335;-67
2021/03/03 00:19:51;;;;;;;;;;;;;;;;;;4956891;28;19926;-66
2021/03/03 00:22:19;;;;;;;;;;;;;;;;;;4949434;28;19927;-66
2021/03/03 00:24:45;;;;;;;;;;;;;;;;;;4951096;29;19946;-66
2021/03/03 00:27:12;;;;;;;;;;;;;;;;;;4947145;28;19930;-66
2021/03/03 00:29:38;;;;;;;;;;;;;;;;;;4947193;29;20021;-67
2021/03/03 00:32:05;;;;;;;;;;;;;;;;;;4955306;28;19930;-66
2021/03/03 00:34:31;;;;;;;;;;;;;;;;;;4957157;28;19958;-67
2021/03/03 00:36:58;;;;;;;;;;;;;;;;;;4954228;28;19926;-67
2021/03/03 00:39:26;;;;;;;;;;;;;;;;;;4954494;28;19926;-66
2021/03/03 00:41:53;;;;;;;;;;;;;;;;;;4954122;28;19926;-68
2021/03/03 00:44:19;;;;;;;;;;;;;;;;;;4956922;28;20395;-66
2021/03/03 00:46:46;;;;;;;;;;;;;;;;;;4955452;28;19927;-67
2021/03/03 00:49:12;;;;;;;;;;;;;;;;;;4952577;29;19926;-66
2021/03/03 00:51:39;;;;;;;;;;;;;;;;;;4950707;28;19991;-66
2021/03/03 00:54:05;;;;;;;;;;;;;;;;;;4956984;28;19973;-65
2021/03/03 00:56:32;;;;;;;;;;;;;;;;;;4952004;28;19926;-66
2021/03/03 00:58:58;;;;;;;;;;;;;;;;;;4955821;28;19941;-65
2021/03/03 01:01:25;;;;;;;;;;;;;;;;;;4951127;28;19926;-65
2021/03/03 01:03:51;;;;;;;;;;;;;;;;;;4949542;28;19927;-64
2021/03/03 01:06:18;;;;;;;;;;;;;;;;;;4950129;28;20539;-66
2021/03/03 01:08:44;;;;;;;;;;;;;;;;;;4954478;29;20025;-66
2021/03/03 01:11:11;;;;;;;;;;;;;;;;;;4956104;28;19985;-67
2021/03/03 01:13:37;;;;;;;;;;;;;;;;;;4956151;28;19927;-66
2021/03/03 01:16:04;;;;;;;;;;;;;;;;;;4956232;28;19926;-67
2021/03/03 01:18:30;;;;;;;;;;;;;;;;;;4956568;28;19933;-66
2021/03/03 01:20:56;;;;;;;;;;;;;;;;;;4954555;28;19932;-67
2021/03/03 01:23:23;;;;;;;;;;;;;;;;;;4951958;28;19936;-66
2021/03/03 01:25:49;;;;;;;;;;;;;;;;;;4955534;28;19933;-70
2021/03/03 01:28:16;;;;;;;;;;;;;;;;;;4955690;28;19927;-65
2021/03/03 01:30:42;;;;;;;;;;;;;;;;;;4953154;28;19926;-66
2021/03/03 01:33:09;;;;;;;;;;;;;;;;;;4955787;28;20413;-66
2021/03/03 01:35:35;;;;;;;;;;;;;;;;;;4950558;23;19931;-69
2021/03/03 01:38:02;;;;;;;;;;;;;;;;;;4933559;29;20391;-69
2021/03/03 01:40:28;;;;;;;;;;;;;;;;;;4926488;29;19930;-69
2021/03/03 01:42:55;;;;;;;;;;;;;;;;;;4944510;29;19927;-69
2021/03/03 01:45:21;;;;;;;;;;;;;;;;;;4934438;28;19927;-69
2021/03/03 01:47:48;;;;;;;;;;;;;;;;;;4933388;29;20291;-69
2021/03/03 01:50:14;;;;;;;;;;;;;;;;;;4933751;29;19931;-70
2021/03/03 01:52:41;;;;;;;;;;;;;;;;;;4926159;29;19926;-69
2021/03/03 01:55:07;;;;;;;;;;;;;;;;;;4930487;29;19982;-69
2021/03/03 01:57:33;;;;;;;;;;;;;;;;;;4928005;29;19931;-69
2021/03/03 02:00:00;;;;;;;;;;;;;;;;;;4932246;29;19927;-69
2021/03/03 02:02:26;;;;;;;;;;;;;;;;;;4930953;29;19927;-69
2021/03/03 02:04:53;;;;;;;;;;;;;;;;;;4933069;29;20336;-69
2021/03/03 02:07:19;;;;;;;;;;;;;;;;;;4933191;29;19933;-69
2021/03/03 02:09:46;;;;;;;;;;;;;;;;;;4928173;29;19931;-69
2021/03/03 02:12:12;;;;;;;;;;;;;;;;;;4932839;29;20399;-69
2021/03/03 02:14:39;;;;;;;;;;;;;;;;;;4932960;29;19933;-69
2021/03/03 02:17:05;;;;;;;;;;;;;;;;;;4931676;29;20387;-69
2021/03/03 02:19:32;;;;;;;;;;;;;;;;;;4933901;29;19927;-68
2021/03/03 02:21:58;;;;;;;;;;;;;;;;;;4931087;29;20021;-69
2021/03/03 02:24:25;;;;;;;;;;;;;;;;;;4931049;29;20656;-70
2021/03/03 02:26:51;;;;;;;;;;;;;;;;;;4933051;29;20096;-69
2021/03/03 02:29:18;;;;;;;;;;;;;;;;;;4932885;29;20306;-69
2021/03/03 02:31:44;;;;;;;;;;;;;;;;;;4929957;29;19931;-69
2021/03/03 02:34:11;;;;;;;;;;;;;;;;;;4932879;29;19927;-69
2021/03/03 02:36:38;;;;;;;;;;;;;;;;;;4933244;29;20196;-69
2021/03/03 02:39:04;;;;;;;;;;;;;;;;;;4931320;29;20457;-69
2021/03/03 02:41:30;;;;;;;;;;;;;;;;;;4935571;29;19935;-69
2021/03/03 02:43:57;;;;;;;;;;;;;;;;;;4937620;29;19938;-69
2021/03/03 02:46:23;;;;;;;;;;;;;;;;;;4934498;29;20800;-69
2021/03/03 02:48:50;;;;;;;;;;;;;;;;;;4930352;29;19927;-69
2021/03/03 02:51:16;;;;;;;;;;;;;;;;;;4935869;29;19933;-70
2021/03/03 02:53:43;;;;;;;;;;;;;;;;;;4934179;29;20414;-69
2021/03/03 02:56:09;;;;;;;;;;;;;;;;;;4933245;29;19931;-69
2021/03/03 02:58:36;;;;;;;;;;;;;;;;;;4934177;29;19927;-67
2021/03/03 03:01:02;;;;;;;;;;;;;;;;;;4934906;29;19927;-67
2021/03/03 03:03:29;;;;;;;;;;;;;;;;;;4931168;29;20394;-68
2021/03/03 03:05:55;;;;;;;;;;;;;;;;;;4927595;29;19931;-70
2021/03/03 03:08:22;;;;;;;;;;;;;;;;;;4927626;29;19934;-68
2021/03/03 03:10:48;;;;;;;;;;;;;;;;;;4931684;29;20307;-70
2021/03/03 03:13:15;;;;;;;;;;;;;;;;;;4936618;29;19974;-67
2021/03/03 03:15:41;;;;;;;;;;;;;;;;;;4934167;29;19933;-67
2021/03/03 03:18:08;;;;;;;;;;;;;;;;;;4936217;29;19933;-67
2021/03/03 03:20:34;;;;;;;;;;;;;;;;;;4936028;29;19937;-68
2021/03/03 03:23:00;;;;;;;;;;;;;;;;;;4935247;29;20434;-68
2021/03/03 03:25:27;;;;;;;;;;;;;;;;;;4936051;29;19953;-68
2021/03/03 03:27:53;;;;;;;;;;;;;;;;;;4933930;29;19937;-67
2021/03/03 03:30:20;;;;;;;;;;;;;;;;;;4936973;29;20435;-68
2021/03/03 03:32:46;;;;;;;;;;;;;;;;;;4935351;29;20018;-68
2021/03/03 03:35:13;;;;;;;;;;;;;;;;;;4933980;29;19927;-67
2021/03/03 03:37:39;;;;;;;;;;;;;;;;;;4935379;29;19933;-67
2021/03/03 03:40:06;;;;;;;;;;;;;;;;;;4935183;29;19990;-68
2021/03/03 03:42:32;;;;;;;;;;;;;;;;;;4935938;29;19945;-68
2021/03/03 03:44:59;;;;;;;;;;;;;;;;;;4935581;29;19927;-68
2021/03/03 03:47:25;;;;;;;;;;;;;;;;;;4936479;29;19934;-69
2021/03/03 03:49:52;;;;;;;;;;;;;;;;;;4936455;29;19927;-68
2021/03/03 03:52:18;;;;;;;;;;;;;;;;;;4935746;29;19927;-69
2021/03/03 03:54:45;;;;;;;;;;;;;;;;;;4933626;29;19933;-67
2021/03/03 03:57:11;;;;;;;;;;;;;;;;;;4934399;29;19935;-68
2021/03/03 03:59:38;;;;;;;;;;;;;;;;;;4935741;29;19949;-68
2021/03/03 04:02:04;;;;;;;;;;;;;;;;;;4934683;29;19931;-67
2021/03/03 04:04:31;;;;;;;;;;;;;;;;;;4939171;29;19927;-68
2021/03/03 04:06:57;;;;;;;;;;;;;;;;;;4938937;29;19981;-68
2021/03/03 04:09:23;;;;;;;;;;;;;;;;;;4950087;29;19935;-68
2021/03/03 04:11:50;;;;;;;;;;;;;;;;;;4935788;29;19927;-68
2021/03/03 04:14:16;;;;;;;;;;;;;;;;;;4937996;29;19927;-67
2021/03/03 04:16:43;;;;;;;;;;;;;;;;;;4946287;29;19927;-68
2021/03/03 04:19:09;;;;;;;;;;;;;;;;;;4945837;29;19926;-68
2021/03/03 04:21:36;;;;;;;;;;;;;;;;;;4935642;29;19926;-68
2021/03/03 04:24:04;;;;;;;;;;;;;;;;;;4931990;29;20394;-68
2021/03/03 04:26:34;;;;;;;;;;;;;;;;;;4934506;29;19927;-67
2021/03/03 04:29:01;;;;;;;;;;;;;;;;;;4932036;29;19927;-68
2021/03/03 04:31:27;;;;;;;;;;;;;;;;;;4932692;29;20183;-69
2021/03/03 04:33:54;;;;;;;;;;;;;;;;;;4934477;29;19931;-68
2021/03/03 04:36:20;;;;;;;;;;;;;;;;;;4934598;29;19934;-67
2021/03/03 04:38:47;;;;;;;;;;;;;;;;;;4927387;29;19927;-67
2021/03/03 04:41:13;;;;;;;;;;;;;;;;;;4929080;29;19978;-68
2021/03/03 04:43:40;;;;;;;;;;;;;;;;;;4933833;29;20400;-68
2021/03/03 04:46:06;;;;;;;;;;;;;;;;;;4930975;29;19938;-68
2021/03/03 04:48:33;;;;;;;;;;;;;;;;;;4935123;29;19926;-68
2021/03/03 04:50:59;;;;;;;;;;;;;;;;;;4934961;29;19926;-68
2021/03/03 04:53:26;;;;;;;;;;;;;;;;;;4935820;29;19982;-68
2021/03/03 04:55:52;;;;;;;;;;;;;;;;;;4931225;29;19934;-68
2021/03/03 04:58:18;;;;;;;;;;;;;;;;;;4933280;29;20292;-68
2021/03/03 05:00:45;;;;;;;;;;;;;;;;;;4934810;29;19927;-68
2021/03/03 05:03:11;;;;;;;;;;;;;;;;;;4933148;29;19950;-69
2021/03/03 05:05:38;;;;;;;;;;;;;;;;;;4934540;29;19975;-68
2021/03/03 05:08:04;;;;;;;;;;;;;;;;;;4933390;29;19926;-68
2021/03/03 05:10:31;;;;;;;;;;;;;;;;;;4933617;29;20303;-68
2021/03/03 05:12:57;;;;;;;;;;;;;;;;;;4934087;29;19974;-68
2021/03/03 05:15:24;;;;;;;;;;;;;;;;;;4933870;29;19931;-69
2021/03/03 05:17:51;;;;;;;;;;;;;;;;;;4934439;29;20413;-68
2021/03/03 05:20:17;;;;;;;;;;;;;;;;;;4933318;29;19926;-68
2021/03/03 05:22:44;;;;;;;;;;;;;;;;;;4934300;29;19935;-68
2021/03/03 05:25:10;;;;;;;;;;;;;;;;;;4934280;29;19934;-68
2021/03/03 05:27:37;;;;;;;;;;;;;;;;;;4934212;29;19933;-69
2021/03/03 05:30:03;;;;;;;;;;;;;;;;;;4930505;29;20354;-69
2021/03/03 05:32:30;;;;;;;;;;;;;;;;;;4935154;29;19931;-68
2021/03/03 05:34:56;;;;;;;;;;;;;;;;;;4932896;29;19926;-69
2021/03/03 05:37:23;;;;;;;;;;;;;;;;;;4934232;29;19926;-69
2021/03/03 05:39:49;;;;;;;;;;;;;;;;;;4933063;29;19927;-69
2021/03/03 05:42:16;;;;;;;;;;;;;;;;;;4934131;29;19934;-68
2021/03/03 05:44:42;;;;;;;;;;;;;;;;;;4934637;29;19942;-68
2021/03/03 05:47:09;;;;;;;;;;;;;;;;;;4934322;29;20747;-68
2021/03/03 05:49:35;;;;;;;;;;;;;;;;;;4934380;29;19927;-68
2021/03/03 05:52:02;;;;;;;;;;;;;;;;;;4931309;29;20399;-68
2021/03/03 05:54:30;;;;;;;;;;;;;;;;;;4933392;29;20123;-68
2021/03/03 05:56:56;;;;;;;;;;;;;;;;;;4932852;29;19927;-68
2021/03/03 05:59:23;;;;;;;;;;;;;;;;;;4932392;29;19926;-68
2021/03/03 06:01:49;;;;;;;;;;;;;;;;;;4933303;29;20317;-69
2021/03/03 06:04:16;;;;;;;;;;;;;;;;;;4933417;29;19937;-68
2021/03/03 06:06:44;;;;;;;;;;;;;;;;;;4934065;29;19933;-68
2021/03/03 06:09:10;;;;;;;;;;;;;;;;;;4929606;29;20031;-68
2021/03/03 06:11:37;;;;;;;;;;;;;;;;;;4932453;29;20350;-68
2021/03/03 06:14:03;;;;;;;;;;;;;;;;;;4932197;29;20026;-68
2021/03/03 06:16:30;;;;;;;;;;;;;;;;;;4933342;29;19973;-68
2021/03/03 06:18:56;;;;;;;;;;;;;;;;;;4933495;29;19934;-68
2021/03/03 06:21:23;;;;;;;;;;;;;;;;;;4932543;29;20118;-68
2021/03/03 06:23:49;;;;;;;;;;;;;;;;;;4927164;29;19934;-68
2021/03/03 06:26:16;;;;;;;;;;;;;;;;;;4932710;29;19931;-68
2021/03/03 06:28:42;;;;;;;;;;;;;;;;;;4930792;29;20291;-68
2021/03/03 06:31:09;;;;;;;;;;;;;;;;;;4928461;29;19933;-68
2021/03/03 06:33:35;;;;;;;;;;;;;;;;;;4934149;29;19927;-69
2021/03/03 06:36:02;;;;;;;;;;;;;;;;;;4932682;29;19994;-68
2021/03/03 06:38:28;;;;;;;;;;;;;;;;;;4933842;29;19938;-68
2021/03/03 06:40:55;;;;;;;;;;;;;;;;;;4931009;29;20013;-68
2021/03/03 06:43:21;;;;;;;;;;;;;;;;;;4934251;29;19927;-68
2021/03/03 06:45:47;;;;;;;;;;;;;;;;;;4933537;29;19926;-68
2021/03/03 06:48:14;;;;;;;;;;;;;;;;;;4924514;29;20588;-68
2021/03/03 06:50:40;;;;;;;;;;;;;;;;;;4932687;29;19926;-68
2021/03/03 06:53:07;;;;;;;;;;;;;;;;;;4933894;29;19927;-68
2021/03/03 06:55:33;;;;;;;;;;;;;;;;;;4931971;29;19930;-69
2021/03/03 06:58:00;;;;;;;;;;;;;;;;;;4925456;29;19927;-67
2021/03/03 07:00:26;;;;;;;;;;;;;;;;;;4928174;29;19982;-67
2021/03/03 07:02:53;;;;;;;;;;;;;;;;;;4932477;29;20435;-67
2021/03/03 07:05:19;;;;;;;;;;;;;;;;;;4932284;29;19927;-67
2021/03/03 07:07:47;;;;;;;;;;;;;;;;;;4931827;29;20380;-67
2021/03/03 07:10:13;;;;;;;;;;;;;;;;;;4932125;29;19930;-68
2021/03/03 07:12:40;;;;;;;;;;;;;;;;;;4933120;29;20284;-67
2021/03/03 07:15:06;;;;;;;;;;;;;;;;;;4933185;29;20018;-67
2021/03/03 07:17:33;;;;;;;;;;;;;;;;;;4932144;29;20354;-68
2021/03/03 07:19:59;;;;;;;;;;;;;;;;;;4933208;29;20018;-68
2021/03/03 07:22:26;;;;;;;;;;;;;;;;;;4933547;29;19926;-67
2021/03/03 07:24:52;;;;;;;;;;;;;;;;;;4931832;29;19927;-67
2021/03/03 07:27:19;;;;;;;;;;;;;;;;;;4934009;29;19931;-68
2021/03/03 07:29:45;;;;;;;;;;;;;;;;;;4934895;29;20335;-67
2021/03/03 07:32:12;;;;;;;;;;;;;;;;;;4935445;29;19926;-68
2021/03/03 07:34:38;;;;;;;;;;;;;;;;;;4950254;23;20244;-67
2021/03/03 07:37:05;;;;;;;;;;;;;;;;;;4938148;29;19934;-69
2021/03/03 07:39:31;;;;;;;;;;;;;;;;;;4937050;29;20041;-67
2021/03/03 07:41:58;;;;;;;;;;;;;;;;;;4933132;29;19927;-67
2021/03/03 07:44:24;;;;;;;;;;;;;;;;;;4935049;28;19927;-67
2021/03/03 07:46:50;;;;;;;;;;;;;;;;;;4930299;29;20283;-69
2021/03/03 07:49:17;;;;;;;;;;;;;;;;;;4927882;29;19945;-69
2021/03/03 07:51:43;;;;;;;;;;;;;;;;;;4931118;29;19926;-68
2021/03/03 07:54:10;;;;;;;;;;;;;;;;;;4931778;29;20299;-71
2021/03/03 07:56:36;;;;;;;;;;;;;;;;;;4932447;29;19939;-68
2021/03/03 07:59:03;;;;;;;;;;;;;;;;;;4932567;29;19927;-67
2021/03/03 08:01:29;;;;;;;;;;;;;;;;;;4933399;29;19934;-67
2021/03/03 08:03:56;;;;;;;;;;;;;;;;;;4932855;29;20343;-67
2021/03/03 08:06:22;;;;;;;;;;;;;;;;;;4932018;29;19927;-66
2021/03/03 08:08:49;;;;;;;;;;;;;;;;;;4933676;29;19939;-67
2021/03/03 08:11:15;;;;;;;;;;;;;;;;;;4932645;29;20354;-67
2021/03/03 08:13:45;;;;;;;;;;;;;;;;;;4933060;29;20013;-65
2021/03/03 08:16:11;;;;;;;;;;;;;;;;;;4932258;29;20005;-65
2021/03/03 08:18:38;;;;;;;;;;;;;;;;;;4928757;29;19935;-66
2021/03/03 08:21:04;;;;;;;;;;;;;;;;;;4933528;29;19926;-65
2021/03/03 08:23:31;;;;;;;;;;;;;;;;;;4932055;29;19931;-68
2021/03/03 08:25:57;;;;;;;;;;;;;;;;;;4930595;29;20392;-67
2021/03/03 08:28:24;;;;;;;;;;;;;;;;;;4930709;29;19981;-67
2021/03/03 08:30:50;;;;;;;;;;;;;;;;;;4931908;29;19930;-65
2021/03/03 08:33:17;;;;;;;;;;;;;;;;;;4934317;29;20407;-65
2021/03/03 08:35:43;;;;;;;;;;;;;;;;;;4931508;29;19935;-68
2021/03/03 08:38:10;;;;;;;;;;;;;;;;;;4933176;29;19927;-67
2021/03/03 08:40:36;;;;;;;;;;;;;;;;;;4932873;29;20288;-68
2021/03/03 08:43:03;;;;;;;;;;;;;;;;;;4932377;29;19927;-69
2021/03/03 08:45:29;;;;;;;;;;;;;;;;;;4933229;29;19934;-66
2021/03/03 08:47:56;;;;;;;;;;;;;;;;;;4932423;29;20017;-68
2021/03/03 08:50:23;;;;;;;;;;;;;;;;;;4933309;29;19976;-67
2021/03/03 08:52:49;;;;;;;;;;;;;;;;;;4933645;29;19934;-66
2021/03/03 08:55:16;;;;;;;;;;;;;;;;;;4931747;29;19926;-66
2021/03/03 08:57:43;;;;;;;;;;;;;;;;;;4932144;29;20276;-67
2021/03/03 09:00:09;;;;;;;;;;;;;;;;;;4930308;29;19927;-68
2021/03/03 09:02:36;;;;;;;;;;;;;;;;;;4930800;29;19931;-68
2021/03/03 09:05:02;;;;;;;;;;;;;;;;;;4931791;29;19931;-66
2021/03/03 09:07:29;;;;;;;;;;;;;;;;;;4927380;29;19931;-67
2021/03/03 09:09:56;;;;;;;;;;;;;;;;;;4932385;29;19934;-67
2021/03/03 09:12:22;;;;;;;;;;;;;;;;;;4930575;29;19981;-67
2021/03/03 09:14:49;;;;;;;;;;;;;;;;;;4930740;29;19938;-66
2021/03/03 09:17:15;;;;;;;;;;;;;;;;;;4931225;29;19934;-67
2021/03/03 09:19:42;;;;;;;;;;;;;;;;;;4923816;29;19934;-67
2021/03/03 09:22:08;;;;;;;;;;;;;;;;;;4929959;29;20294;-67
2021/03/03 09:24:34;;;;;;;;;;;;;;;;;;4929496;29;19926;-68
2021/03/03 09:27:01;;;;;;;;;;;;;;;;;;4929546;29;19931;-66
2021/03/03 09:29:27;;;;;;;;;;;;;;;;;;4929660;29;19927;-67
2021/03/03 09:31:54;;;;;;;;;;;;;;;;;;4927278;29;20029;-64
2021/03/03 09:34:20;;;;;;;;;;;;;;;;;;4929754;29;20413;-65
2021/03/03 09:36:47;;;;;;;;;;;;;;;;;;4930281;29;20310;-65
2021/03/03 09:39:13;;;;;;;;;;;;;;;;;;4927510;29;19927;-65
2021/03/03 09:41:40;;;;;;;;;;;;;;;;;;4932474;29;20397;-66
2021/03/03 09:44:06;;;;;;;;;;;;;;;;;;4928767;29;19941;-68
2021/03/03 09:46:33;;;;;;;;;;;;;;;;;;4924454;29;19931;-64
2021/03/03 09:48:59;;;;;;;;;;;;;;;;;;4931265;29;20014;-66
2021/03/03 09:51:26;;;;;;;;;;;;;;;;;;4931006;29;19953;-66
2021/03/03 09:53:52;;;;;;;;;;;;;;;;;;4931471;29;19990;-68
2021/03/03 09:56:19;;;;;;;;;;;;;;;;;;4931027;29;19927;-64
2021/03/03 09:58:45;;;;;;;;;;;;;;;;;;4931145;29;20252;-64
2021/03/03 10:01:12;;;;;;;;;;;;;;;;;;4930997;29;19935;-65
2021/03/03 10:03:38;;;;;;;;;;;;;;;;;;4930318;29;20452;-65
2021/03/03 10:06:04;;;;;;;;;;;;;;;;;;4932099;29;19926;-67
2021/03/03 10:08:31;;;;;;;;;;;;;;;;;;4932482;29;20617;-68
2021/03/03 10:11:01;;;;;;;;;;;;;;;;;;4932250;29;19926;-68
2021/03/03 10:13:27;;;;;;;;;;;;;;;;;;4925458;29;20038;-65
2021/03/03 10:15:55;;;;;;;;;;;;;;;;;;4932819;29;20403;-65
2021/03/03 10:18:21;;;;;;;;;;;;;;;;;;4932567;29;19934;-65
2021/03/03 10:20:48;;;;;;;;;;;;;;;;;;4932877;29;20014;-66
2021/03/03 10:23:14;;;;;;;;;;;;;;;;;;4933152;29;19935;-67
2021/03/03 10:25:41;;;;;;;;;;;;;;;;;;4930736;29;19945;-68
2021/03/03 10:28:07;;;;;;;;;;;;;;;;;;4937339;29;19937;-66
2021/03/03 10:30:34;;;;;;;;;;;;;;;;;;4930355;29;19934;-67
2021/03/03 10:33:00;;;;;;;;;;;;;;;;;;4931951;29;19993;-68
2021/03/03 10:35:29;;;;;;;;;;;;;;;;;;4932320;29;20367;-67
2021/03/03 10:37:55;;;;;;;;;;;;;;;;;;4931410;29;19927;-68
2021/03/03 10:40:22;;;;;;;;;;;;;;;;;;4929130;29;19927;-67
2021/03/03 10:42:48;;;;;;;;;;;;;;;;;;4928060;29;19926;-68
2021/03/03 10:45:15;;;;;;;;;;;;;;;;;;4929684;29;19981;-67
2021/03/03 10:47:41;;;;;;;;;;;;;;;;;;4923697;29;19934;-66
2021/03/03 10:50:08;;;;;;;;;;;;;;;;;;4931419;29;20069;-66
2021/03/03 10:52:34;;;;;;;;;;;;;;;;;;4931530;29;19927;-69
2021/03/03 10:55:01;;;;;;;;;;;;;;;;;;4930432;29;19930;-67
2021/03/03 10:57:27;;;;;;;;;;;;;;;;;;4931663;29;19933;-66
2021/03/03 10:59:54;;;;;;;;;;;;;;;;;;4927565;29;19931;-66
2021/03/03 11:02:20;;;;;;;;;;;;;;;;;;4932655;29;19930;-67
2021/03/03 11:04:47;;;;;;;;;;;;;;;;;;4935923;29;19927;-66
2021/03/03 11:07:13;;;;;;;;;;;;;;;;;;4935635;29;19956;-65
2021/03/03 11:09:40;;;;;;;;;;;;;;;;;;4934656;29;19927;-66
2021/03/03 11:12:06;;;;;;;;;;;;;;;;;;4935544;29;19962;-66
2021/03/03 11:14:33;;;;;;;;;;;;;;;;;;4934586;29;19931;-68
2021/03/03 11:16:59;;;;;;;;;;;;;;;;;;4935924;29;19933;-66
2021/03/03 11:19:26;;;;;;;;;;;;;;;;;;4935467;29;19949;-66
2021/03/03 11:21:52;;;;;;;;;;;;;;;;;;4935787;29;19934;-66
2021/03/03 11:24:19;;;;;;;;;;;;;;;;;;4934145;29;19933;-69
2021/03/03 11:26:45;;;;;;;;;;;;;;;;;;4934778;29;19931;-68
2021/03/03 11:29:12;;;;;;;;;;;;;;;;;;4935059;29;19926;-67
2021/03/03 11:31:38;;;;;;;;;;;;;;;;;;4934136;29;20382;-67
2021/03/03 11:34:05;;;;;;;;;;;;;;;;;;4935176;29;19927;-67
2021/03/03 11:36:31;;;;;;;;;;;;;;;;;;4933553;29;20192;-66
2021/03/03 11:38:58;;;;;;;;;;;;;;;;;;4933988;29;19983;-68
2021/03/03 11:41:24;;;;;;;;;;;;;;;;;;4927220;29;19927;-65
2021/03/03 11:43:51;;;;;;;;;;;;;;;;;;4928806;29;19969;-67
2021/03/03 11:46:19;;;;;;;;;;;;;;;;;;4929706;29;19934;-67
2021/03/03 11:48:46;;;;;;;;;;;;;;;;;;4927542;29;19931;-67
2021/03/03 11:51:22;;;;;;;;;;;;;;;;;;4927352;29;19926;-68
2021/03/03 11:53:50;;;;;;;;;;;;;;;;;;4928403;29;19927;-68
2021/03/03 11:56:16;;;;;;;;;;;;;;;;;;4931205;29;20406;-68
2021/03/03 11:58:43;;;;;;;;;;;;;;;;;;4927230;29;19933;-69
2021/03/03 12:01:09;;;;;;;;;;;;;;;;;;4926111;29;19927;-68
2021/03/03 12:03:36;;;;;;;;;;;;;;;;;;4927801;29;19926;-70
2021/03/03 12:06:02;;;;;;;;;;;;;;;;;;4924154;29;20335;-68
2021/03/03 12:08:29;;;;;;;;;;;;;;;;;;4926035;29;19994;-66
2021/03/03 12:10:56;;;;;;;;;;;;;;;;;;4926092;29;19933;-70
2021/03/03 12:13:22;;;;;;;;;;;;;;;;;;4927545;29;20311;-67
2021/03/03 12:15:49;;;;;;;;;;;;;;;;;;4929700;29;20510;-67
2021/03/03 12:18:15;;;;;;;;;;;;;;;;;;4929472;29;19935;-68
2021/03/03 12:20:42;;;;;;;;;;;;;;;;;;4927251;29;19934;-69
2021/03/03 12:23:08;;;;;;;;;;;;;;;;;;4925748;29;19926;-67
2021/03/03 12:25:35;;;;;;;;;;;;;;;;;;4922736;29;20344;-68
2021/03/03 12:28:01;;;;;;;;;;;;;;;;;;4925712;29;19931;-68
2021/03/03 12:30:28;;;;;;;;;;;;;;;;;;4929973;29;19927;-69
2021/03/03 12:32:54;;;;;;;;;;;;;;;;;;4924617;29;19982;-69
2021/03/03 12:35:21;;;;;;;;;;;;;;;;;;4927629;29;19939;-70
2021/03/03 12:37:47;;;;;;;;;;;;;;;;;;4928475;29;19931;-68
2021/03/03 12:40:14;;;;;;;;;;;;;;;;;;4925091;29;19937;-71
2021/03/03 12:42:40;;;;;;;;;;;;;;;;;;4928829;29;20018;-68
2021/03/03 12:45:07;;;;;;;;;;;;;;;;;;4926775;29;20492;-68
2021/03/03 12:47:33;;;;;;;;;;;;;;;;;;4926670;29;19986;-68
2021/03/03 12:50:00;;;;;;;;;;;;;;;;;;4925712;29;20169;-69
2021/03/03 12:52:26;;;;;;;;;;;;;;;;;;4925114;29;19934;-72
2021/03/03 12:54:52;;;;;;;;;;;;;;;;;;4925327;29;20313;-69
2021/03/03 12:57:19;;;;;;;;;;;;;;;;;;4926978;29;19974;-69
2021/03/03 12:59:45;;;;;;;;;;;;;;;;;;4927481;29;20438;-67
2021/03/03 13:02:12;;;;;;;;;;;;;;;;;;4927073;29;20202;-70
2021/03/03 13:04:38;;;;;;;;;;;;;;;;;;4926844;29;19942;-68
2021/03/03 13:07:05;;;;;;;;;;;;;;;;;;4925789;29;20327;-68
2021/03/03 13:09:31;;;;;;;;;;;;;;;;;;4923732;29;19982;-68
2021/03/03 13:11:58;;;;;;;;;;;;;;;;;;4924365;29;19930;-69
2021/03/03 13:14:24;;;;;;;;;;;;;;;;;;4925473;29;19950;-70
2021/03/03 13:16:51;;;;;;;;;;;;;;;;;;4922339;29;20418;-72
2021/03/03 13:19:17;;;;;;;;;;;;;;;;;;4925569;29;19927;-68
2021/03/03 13:21:44;;;;;;;;;;;;;;;;;;4924504;29;20307;-68
2021/03/03 13:24:12;;;;;;;;;;;;;;;;;;4922674;29;20290;-69
2021/03/03 13:26:38;;;;;;;;;;;;;;;;;;4924089;29;19926;-70
2021/03/03 13:29:05;;;;;;;;;;;;;;;;;;4929398;29;19926;-69
2021/03/03 13:31:32;;;;;;;;;;;;;;;;;;4929227;29;19927;-70
2021/03/03 13:33:58;;;;;;;;;;;;;;;;;;4924947;29;19956;-69
2021/03/03 13:36:24;;;;;;;;;;;;;;;;;;4927073;29;19997;-69
2021/03/03 13:38:51;;;;;;;;;;;;;;;;;;4925467;29;19931;-69
2021/03/03 13:41:28;;;;;;;;;;;;;;;;;;4922240;29;20307;-72
2021/03/03 13:43:55;;;;;;;;;;;;;;;;;;4922989;29;20002;-72
2021/03/03 13:46:21;;;;;;;;;;;;;;;;;;4927687;29;20196;-69
2021/03/03 13:48:48;;;;;;;;;;;;;;;;;;4930850;29;20009;-68
2021/03/03 13:51:14;;;;;;;;;;;;;;;;;;4925852;29;19931;-69
2021/03/03 13:53:41;;;;;;;;;;;;;;;;;;4927031;29;19937;-69
2021/03/03 13:56:07;;;;;;;;;;;;;;;;;;4921898;29;19985;-68
2021/03/03 13:58:34;;;;;;;;;;;;;;;;;;4926055;29;19926;-68
2021/03/03 14:01:00;;;;;;;;;;;;;;;;;;4928126;29;19927;-69
2021/03/03 14:03:27;;;;;;;;;;;;;;;;;;4930224;29;20363;-66
2021/03/03 14:05:53;;;;;;;;;;;;;;;;;;4929932;29;19933;-69
2021/03/03 14:08:19;;;;;;;;;;;;;;;;;;4931032;29;20394;-67
2021/03/03 14:10:46;;;;;;;;;;;;;;;;;;4931696;29;20322;-70
2021/03/03 14:13:12;;;;;;;;;;;;;;;;;;4930666;29;20420;-68
2021/03/03 14:15:39;;;;;;;;;;;;;;;;;;4931734;29;19935;-68
2021/03/03 14:18:06;;;;;;;;;;;;;;;;;;4930048;29;19926;-71
2021/03/03 14:20:39;;;;;;;;;;;;;;;;;;4930952;29;19965;-67
2021/03/03 14:23:05;;;;;;;;;;;;;;;;;;4931085;29;19934;-66
2021/03/03 14:25:32;;;;;;;;;;;;;;;;;;4927380;29;20272;-68
2021/03/03 14:27:58;;;;;;;;;;;;;;;;;;4932064;29;19937;-66
2021/03/03 14:30:24;;;;;;;;;;;;;;;;;;4930208;29;20291;-70
2021/03/03 14:32:51;;;;;;;;;;;;;;;;;;4932173;29;19938;-68
2021/03/03 14:35:17;;;;;;;;;;;;;;;;;;4931129;29;20225;-68
2021/03/03 14:37:44;;;;;;;;;;;;;;;;;;4935112;29;19937;-68
2021/03/03 14:40:10;;;;;;;;;;;;;;;;;;4935812;29;19931;-67
2021/03/03 14:42:37;;;;;;;;;;;;;;;;;;4934288;29;20375;-66
2021/03/03 14:45:03;;;;;;;;;;;;;;;;;;4935384;29;20352;-68
2021/03/03 14:47:30;;;;;;;;;;;;;;;;;;4935051;29;19959;-66
2021/03/03 14:49:56;;;;;;;;;;;;;;;;;;4934569;29;20405;-68
2021/03/03 14:52:23;;;;;;;;;;;;;;;;;;4931163;29;19927;-66
2021/03/03 14:54:49;;;;;;;;;;;;;;;;;;4933146;29;19934;-68
2021/03/03 14:57:16;;;;;;;;;;;;;;;;;;4935072;29;19930;-66
2021/03/03 14:59:43;;;;;;;;;;;;;;;;;;4933820;29;19930;-65
2021/03/03 15:02:12;;;;;;;;;;;;;;;;;;4935361;29;19930;-67
2021/03/03 15:04:38;;;;;;;;;;;;;;;;;;4932856;29;19970;-66
2021/03/03 15:07:04;;;;;;;;;;;;;;;;;;4930131;29;19927;-64
2021/03/03 15:09:31;;;;;;;;;;;;;;;;;;4935055;28;19931;-67
2021/03/03 15:11:57;;;;;;;;;;;;;;;;;;4938363;29;19993;-66
2021/03/03 15:14:24;;;;;;;;;;;;;;;;;;4937330;29;20220;-70
2021/03/03 15:16:50;;;;;;;;;;;;;;;;;;4934206;29;20029;-72
2021/03/03 15:19:17;;;;;;;;;;;;;;;;;;4932131;29;20314;-69
2021/03/03 15:21:43;;;;;;;;;;;;;;;;;;4935875;29;19933;-67
2021/03/03 15:24:10;;;;;;;;;;;;;;;;;;4937475;29;20332;-68
2021/03/03 15:26:36;;;;;;;;;;;;;;;;;;4938695;29;19933;-70
2021/03/03 15:29:03;;;;;;;;;;;;;;;;;;4933937;29;19931;-68
2021/03/03 15:31:30;;;;;;;;;;;;;;;;;;4939450;29;20303;-68
2021/03/03 15:33:58;;;;;;;;;;;;;;;;;;4931485;29;19927;-67
2021/03/03 15:36:25;;;;;;;;;;;;;;;;;;4937740;29;19954;-69
2021/03/03 15:38:51;;;;;;;;;;;;;;;;;;4935305;29;19939;-68
2021/03/03 15:41:18;;;;;;;;;;;;;;;;;;4932588;29;20680;-67
2021/03/03 15:43:44;;;;;;;;;;;;;;;;;;4934777;28;19933;-67
2021/03/03 15:46:11;;;;;;;;;;;;;;;;;;4935010;29;19934;-69
2021/03/03 15:48:37;;;;;;;;;;;;;;;;;;4937516;29;19927;-70
2021/03/03 15:51:03;;;;;;;;;;;;;;;;;;4933770;28;19945;-68
2021/03/03 15:53:30;;;;;;;;;;;;;;;;;;4936977;28;19930;-67
2021/03/03 15:55:56;;;;;;;;;;;;;;;;;;4933448;28;20438;-70
2021/03/03 15:58:23;;;;;;;;;;;;;;;;;;4932156;29;20446;-67
2021/03/03 16:00:50;;;;;;;;;;;;;;;;;;4932911;29;19927;-71
2021/03/03 16:03:16;;;;;;;;;;;;;;;;;;4937460;29;19927;-69
2021/03/03 16:05:43;;;;;;;;;;;;;;;;;;4929915;29;19927;-69
2021/03/03 16:08:09;;;;;;;;;;;;;;;;;;4931482;29;19934;-69
2021/03/03 16:10:36;;;;;;;;;;;;;;;;;;4932621;29;20022;-67
2021/03/03 16:13:02;;;;;;;;;;;;;;;;;;4939770;29;19927;-68
2021/03/03 16:15:29;;;;;;;;;;;;;;;;;;4928225;28;19938;-67
2021/03/03 16:17:56;;;;;;;;;;;;;;;;;;4930236;29;20052;-67
2021/03/03 16:20:22;;;;;;;;;;;;;;;;;;4932116;29;19970;-69
2021/03/03 16:22:49;;;;;;;;;;;;;;;;;;4929000;28;20192;-67
2021/03/03 16:25:15;;;;;;;;;;;;;;;;;;4929279;29;19955;-68
2021/03/03 16:27:42;;;;;;;;;;;;;;;;;;4930237;29;19926;-67
2021/03/03 16:30:09;;;;;;;;;;;;;;;;;;4932912;29;19934;-67
2021/03/03 16:32:36;;;;;;;;;;;;;;;;;;4930694;29;19934;-66
2021/03/03 16:35:02;;;;;;;;;;;;;;;;;;4926575;29;19931;-68
2021/03/03 16:37:29;;;;;;;;;;;;;;;;;;4931093;29;20411;-67
2021/03/03 16:39:56;;;;;;;;;;;;;;;;;;4933951;29;19926;-67